sensor_id;sensor_type;location;lat;lon;timestamp;temperature;humidity
12901;DHT22;6518;50.930;5.344;2022-08-21T00:02:25;20.30;60.60
12901;DHT22;6518;50.930;5.344;2022-08-21T00:04:53;20.30;60.60
12901;DHT22;6518;50.930;5.344;2022-08-21T00:07:20;20.30;60.60
12901;DHT22;6518;50.930;5.344;2022-08-21T00:09:48;20.30;60.40
12901;DHT22;6518;50.930;5.344;2022-08-21T00:12:15;20.20;60.30
12901;DHT22;6518;50.930;5.344;2022-08-21T00:14:42;20.20;60.20
12901;DHT22;6518;50.930;5.344;2022-08-21T00:17:09;20.10;60.40
12901;DHT22;6518;50.930;5.344;2022-08-21T00:19:36;20.10;60.80
12901;DHT22;6518;50.930;5.344;2022-08-21T00:22:03;20.10;60.80
12901;DHT22;6518;50.930;5.344;2022-08-21T00:24:30;20.10;60.70
12901;DHT22;6518;50.930;5.344;2022-08-21T00:26:59;20.10;60.70
12901;DHT22;6518;50.930;5.344;2022-08-21T00:29:26;20.10;61.00
12901;DHT22;6518;50.930;5.344;2022-08-21T00:31:52;20.10;61.00
12901;DHT22;6518;50.930;5.344;2022-08-21T00:34:19;20.10;61.00
12901;DHT22;6518;50.930;5.344;2022-08-21T00:36:46;20.10;60.90
12901;DHT22;6518;50.930;5.344;2022-08-21T00:39:13;20.10;61.00
12901;DHT22;6518;50.930;5.344;2022-08-21T00:41:41;20.00;61.10
12901;DHT22;6518;50.930;5.344;2022-08-21T00:44:12;20.00;60.90
12901;DHT22;6518;50.930;5.344;2022-08-21T00:46:40;20.00;61.00
12901;DHT22;6518;50.930;5.344;2022-08-21T00:49:09;19.90;61.00
12901;DHT22;6518;50.930;5.344;2022-08-21T00:51:39;19.90;61.10
12901;DHT22;6518;50.930;5.344;2022-08-21T00:54:07;19.80;61.10
12901;DHT22;6518;50.930;5.344;2022-08-21T00:56:34;19.80;61.10
12901;DHT22;6518;50.930;5.344;2022-08-21T00:59:02;19.80;61.10
12901;DHT22;6518;50.930;5.344;2022-08-21T01:01:30;19.80;61.30
12901;DHT22;6518;50.930;5.344;2022-08-21T01:03:57;19.70;61.40
12901;DHT22;6518;50.930;5.344;2022-08-21T01:06:24;19.70;61.50
12901;DHT22;6518;50.930;5.344;2022-08-21T01:08:51;19.70;61.50
12901;DHT22;6518;50.930;5.344;2022-08-21T01:11:18;19.70;62.40
12901;DHT22;6518;50.930;5.344;2022-08-21T01:13:47;19.60;61.60
12901;DHT22;6518;50.930;5.344;2022-08-21T01:16:17;19.70;61.60
12901;DHT22;6518;50.930;5.344;2022-08-21T01:18:47;19.70;61.70
12901;DHT22;6518;50.930;5.344;2022-08-21T01:21:18;19.70;61.70
12901;DHT22;6518;50.930;5.344;2022-08-21T01:23:47;19.60;61.80
12901;DHT22;6518;50.930;5.344;2022-08-21T01:26:16;19.60;61.80
12901;DHT22;6518;50.930;5.344;2022-08-21T01:28:49;19.60;61.70
12901;DHT22;6518;50.930;5.344;2022-08-21T01:31:19;19.50;61.80
12901;DHT22;6518;50.930;5.344;2022-08-21T01:33:48;19.50;61.80
12901;DHT22;6518;50.930;5.344;2022-08-21T01:36:16;19.50;61.80
12901;DHT22;6518;50.930;5.344;2022-08-21T01:38:43;19.40;62.00
12901;DHT22;6518;50.930;5.344;2022-08-21T01:41:10;19.40;62.00
12901;DHT22;6518;50.930;5.344;2022-08-21T01:43:37;19.40;62.10
12901;DHT22;6518;50.930;5.344;2022-08-21T01:46:04;19.30;62.20
12901;DHT22;6518;50.930;5.344;2022-08-21T01:48:31;19.30;62.30
12901;DHT22;6518;50.930;5.344;2022-08-21T01:50:58;19.30;62.40
12901;DHT22;6518;50.930;5.344;2022-08-21T01:53:27;19.30;63.20
12901;DHT22;6518;50.930;5.344;2022-08-21T01:55:54;19.30;63.20
12901;DHT22;6518;50.930;5.344;2022-08-21T01:58:21;19.30;62.40
12901;DHT22;6518;50.930;5.344;2022-08-21T02:00:48;19.30;62.60
12901;DHT22;6518;50.930;5.344;2022-08-21T02:03:15;19.20;62.50
12901;DHT22;6518;50.930;5.344;2022-08-21T02:05:41;19.30;62.50
12901;DHT22;6518;50.930;5.344;2022-08-21T02:08:08;19.20;62.50
12901;DHT22;6518;50.930;5.344;2022-08-21T02:10:37;19.20;62.50
12901;DHT22;6518;50.930;5.344;2022-08-21T02:13:04;19.20;62.70
12901;DHT22;6518;50.930;5.344;2022-08-21T02:15:32;19.20;62.60
12901;DHT22;6518;50.930;5.344;2022-08-21T02:18:00;19.20;62.70
12901;DHT22;6518;50.930;5.344;2022-08-21T02:20:32;19.20;62.70
12901;DHT22;6518;50.930;5.344;2022-08-21T02:23:00;19.10;62.70
12901;DHT22;6518;50.930;5.344;2022-08-21T02:25:28;19.10;62.70
12901;DHT22;6518;50.930;5.344;2022-08-21T02:27:58;19.10;62.70
12901;DHT22;6518;50.930;5.344;2022-08-21T02:30:28;19.00;62.70
12901;DHT22;6518;50.930;5.344;2022-08-21T02:32:56;19.00;62.80
12901;DHT22;6518;50.930;5.344;2022-08-21T02:35:23;19.00;62.90
12901;DHT22;6518;50.930;5.344;2022-08-21T02:37:53;18.90;62.90
12901;DHT22;6518;50.930;5.344;2022-08-21T02:40:23;18.90;63.00
12901;DHT22;6518;50.930;5.344;2022-08-21T02:42:50;18.90;63.10
12901;DHT22;6518;50.930;5.344;2022-08-21T02:45:19;18.90;63.20
12901;DHT22;6518;50.930;5.344;2022-08-21T02:47:49;18.80;63.20
12901;DHT22;6518;50.930;5.344;2022-08-21T02:50:19;18.80;63.30
12901;DHT22;6518;50.930;5.344;2022-08-21T02:52:47;18.80;63.30
12901;DHT22;6518;50.930;5.344;2022-08-21T02:55:15;18.80;63.30
12901;DHT22;6518;50.930;5.344;2022-08-21T02:57:42;18.80;63.50
12901;DHT22;6518;50.930;5.344;2022-08-21T03:00:10;18.80;63.40
12901;DHT22;6518;50.930;5.344;2022-08-21T03:02:39;18.70;63.40
12901;DHT22;6518;50.930;5.344;2022-08-21T03:05:08;18.70;63.50
12901;DHT22;6518;50.930;5.344;2022-08-21T03:07:36;18.70;63.60
12901;DHT22;6518;50.930;5.344;2022-08-21T03:10:05;18.70;63.70
12901;DHT22;6518;50.930;5.344;2022-08-21T03:12:32;18.70;63.70
12901;DHT22;6518;50.930;5.344;2022-08-21T03:15:01;18.70;63.60
12901;DHT22;6518;50.930;5.344;2022-08-21T03:17:28;18.60;63.60
12901;DHT22;6518;50.930;5.344;2022-08-21T03:19:56;18.60;63.70
12901;DHT22;6518;50.930;5.344;2022-08-21T03:22:23;18.60;63.70
12901;DHT22;6518;50.930;5.344;2022-08-21T03:24:50;18.60;63.70
12901;DHT22;6518;50.930;5.344;2022-08-21T03:27:18;18.50;63.90
12901;DHT22;6518;50.930;5.344;2022-08-21T03:29:44;18.50;64.10
12901;DHT22;6518;50.930;5.344;2022-08-21T03:32:12;18.50;64.10
12901;DHT22;6518;50.930;5.344;2022-08-21T03:34:39;18.50;64.10
12901;DHT22;6518;50.930;5.344;2022-08-21T03:37:08;18.50;64.10
12901;DHT22;6518;50.930;5.344;2022-08-21T03:39:35;18.50;64.10
12901;DHT22;6518;50.930;5.344;2022-08-21T03:42:02;18.50;64.20
12901;DHT22;6518;50.930;5.344;2022-08-21T03:44:30;18.40;64.10
12901;DHT22;6518;50.930;5.344;2022-08-21T03:46:57;18.40;64.00
12901;DHT22;6518;50.930;5.344;2022-08-21T03:49:24;18.40;64.30
12901;DHT22;6518;50.930;5.344;2022-08-21T03:51:51;18.30;64.30
12901;DHT22;6518;50.930;5.344;2022-08-21T03:54:19;18.30;64.30
12901;DHT22;6518;50.930;5.344;2022-08-21T03:56:46;18.20;64.50
12901;DHT22;6518;50.930;5.344;2022-08-21T03:59:13;18.20;64.60
12901;DHT22;6518;50.930;5.344;2022-08-21T04:01:51;18.20;64.70
12901;DHT22;6518;50.930;5.344;2022-08-21T04:04:18;18.20;65.00
12901;DHT22;6518;50.930;5.344;2022-08-21T04:06:45;18.20;64.80
12901;DHT22;6518;50.930;5.344;2022-08-21T04:09:12;18.10;64.80
12901;DHT22;6518;50.930;5.344;2022-08-21T04:11:41;18.10;64.80
12901;DHT22;6518;50.930;5.344;2022-08-21T04:14:08;18.00;65.00
12901;DHT22;6518;50.930;5.344;2022-08-21T04:16:35;18.10;65.00
12901;DHT22;6518;50.930;5.344;2022-08-21T04:19:02;18.00;65.00
12901;DHT22;6518;50.930;5.344;2022-08-21T04:21:30;18.00;65.10
12901;DHT22;6518;50.930;5.344;2022-08-21T04:23:57;18.00;65.10
12901;DHT22;6518;50.930;5.344;2022-08-21T04:26:25;18.00;65.10
12901;DHT22;6518;50.930;5.344;2022-08-21T04:28:53;18.00;65.10
12901;DHT22;6518;50.930;5.344;2022-08-21T04:31:23;17.90;65.20
12901;DHT22;6518;50.930;5.344;2022-08-21T04:33:50;17.90;65.30
12901;DHT22;6518;50.930;5.344;2022-08-21T04:36:18;17.90;65.30
12901;DHT22;6518;50.930;5.344;2022-08-21T04:38:45;17.80;65.30
12901;DHT22;6518;50.930;5.344;2022-08-21T04:41:12;17.80;65.40
12901;DHT22;6518;50.930;5.344;2022-08-21T04:43:39;17.80;65.30
12901;DHT22;6518;50.930;5.344;2022-08-21T04:46:07;17.70;65.30
12901;DHT22;6518;50.930;5.344;2022-08-21T04:48:34;17.70;65.60
12901;DHT22;6518;50.930;5.344;2022-08-21T04:51:05;17.70;65.80
12901;DHT22;6518;50.930;5.344;2022-08-21T04:53:37;17.70;65.90
12901;DHT22;6518;50.930;5.344;2022-08-21T04:56:08;17.70;65.90
12901;DHT22;6518;50.930;5.344;2022-08-21T04:58:37;17.70;66.10
12901;DHT22;6518;50.930;5.344;2022-08-21T05:01:09;17.70;66.00
12901;DHT22;6518;50.930;5.344;2022-08-21T05:03:37;17.70;66.10
12901;DHT22;6518;50.930;5.344;2022-08-21T05:06:09;17.70;66.10
12901;DHT22;6518;50.930;5.344;2022-08-21T05:08:37;17.70;66.00
12901;DHT22;6518;50.930;5.344;2022-08-21T05:11:04;17.70;66.10
12901;DHT22;6518;50.930;5.344;2022-08-21T05:13:32;17.70;66.10
12901;DHT22;6518;50.930;5.344;2022-08-21T05:15:59;17.70;66.30
12901;DHT22;6518;50.930;5.344;2022-08-21T05:18:27;17.70;66.20
12901;DHT22;6518;50.930;5.344;2022-08-21T05:20:54;17.70;66.00
12901;DHT22;6518;50.930;5.344;2022-08-21T05:23:21;17.70;66.00
12901;DHT22;6518;50.930;5.344;2022-08-21T05:25:48;17.70;66.00
12901;DHT22;6518;50.930;5.344;2022-08-21T05:28:15;17.70;66.20
12901;DHT22;6518;50.930;5.344;2022-08-21T05:30:41;17.70;66.20
12901;DHT22;6518;50.930;5.344;2022-08-21T05:33:08;17.70;66.40
12901;DHT22;6518;50.930;5.344;2022-08-21T05:35:37;17.70;66.50
12901;DHT22;6518;50.930;5.344;2022-08-21T05:38:05;17.70;66.50
12901;DHT22;6518;50.930;5.344;2022-08-21T05:40:32;17.80;66.60
12901;DHT22;6518;50.930;5.344;2022-08-21T05:42:59;17.80;66.60
12901;DHT22;6518;50.930;5.344;2022-08-21T05:45:30;17.90;66.60
12901;DHT22;6518;50.930;5.344;2022-08-21T05:47:57;17.90;66.50
12901;DHT22;6518;50.930;5.344;2022-08-21T05:50:24;18.00;66.50
12901;DHT22;6518;50.930;5.344;2022-08-21T05:52:52;18.00;66.50
12901;DHT22;6518;50.930;5.344;2022-08-21T05:55:19;18.00;66.40
12901;DHT22;6518;50.930;5.344;2022-08-21T05:57:46;18.10;66.30
12901;DHT22;6518;50.930;5.344;2022-08-21T06:00:14;18.10;66.50
12901;DHT22;6518;50.930;5.344;2022-08-21T06:02:42;18.10;66.40
12901;DHT22;6518;50.930;5.344;2022-08-21T06:05:09;18.20;67.30
12901;DHT22;6518;50.930;5.344;2022-08-21T06:07:36;18.20;66.60
12901;DHT22;6518;50.930;5.344;2022-08-21T06:10:05;18.20;66.50
12901;DHT22;6518;50.930;5.344;2022-08-21T06:12:31;18.20;66.30
12901;DHT22;6518;50.930;5.344;2022-08-21T06:14:58;18.30;66.30
12901;DHT22;6518;50.930;5.344;2022-08-21T06:17:25;18.30;66.40
12901;DHT22;6518;50.930;5.344;2022-08-21T06:19:53;18.40;66.50
12901;DHT22;6518;50.930;5.344;2022-08-21T06:22:20;18.40;66.50
12901;DHT22;6518;50.930;5.344;2022-08-21T06:24:47;18.40;66.40
12901;DHT22;6518;50.930;5.344;2022-08-21T06:27:16;18.50;66.30
12901;DHT22;6518;50.930;5.344;2022-08-21T06:29:43;18.50;66.50
12901;DHT22;6518;50.930;5.344;2022-08-21T06:32:11;18.60;66.50
12901;DHT22;6518;50.930;5.344;2022-08-21T06:34:40;18.60;66.50
12901;DHT22;6518;50.930;5.344;2022-08-21T06:37:07;18.70;66.40
12901;DHT22;6518;50.930;5.344;2022-08-21T06:39:34;18.70;66.20
12901;DHT22;6518;50.930;5.344;2022-08-21T06:42:01;18.70;66.30
12901;DHT22;6518;50.930;5.344;2022-08-21T06:44:29;18.80;66.20
12901;DHT22;6518;50.930;5.344;2022-08-21T06:46:57;18.80;66.10
12901;DHT22;6518;50.930;5.344;2022-08-21T06:49:24;18.80;66.10
12901;DHT22;6518;50.930;5.344;2022-08-21T06:51:50;18.90;66.30
12901;DHT22;6518;50.930;5.344;2022-08-21T06:54:17;18.90;65.60
12901;DHT22;6518;50.930;5.344;2022-08-21T06:56:44;19.00;66.20
12901;DHT22;6518;50.930;5.344;2022-08-21T06:59:12;19.10;66.20
12901;DHT22;6518;50.930;5.344;2022-08-21T07:01:40;19.20;66.10
12901;DHT22;6518;50.930;5.344;2022-08-21T07:04:07;19.30;66.10
12901;DHT22;6518;50.930;5.344;2022-08-21T07:06:34;19.30;66.00
12901;DHT22;6518;50.930;5.344;2022-08-21T07:09:01;19.40;65.80
12901;DHT22;6518;50.930;5.344;2022-08-21T07:11:28;19.40;65.80
12901;DHT22;6518;50.930;5.344;2022-08-21T07:13:55;19.50;65.80
12901;DHT22;6518;50.930;5.344;2022-08-21T07:16:24;19.60;65.80
12901;DHT22;6518;50.930;5.344;2022-08-21T07:18:52;19.70;65.70
12901;DHT22;6518;50.930;5.344;2022-08-21T07:21:19;19.70;65.50
12901;DHT22;6518;50.930;5.344;2022-08-21T07:23:48;19.80;65.40
12901;DHT22;6518;50.930;5.344;2022-08-21T07:26:18;19.90;65.40
12901;DHT22;6518;50.930;5.344;2022-08-21T07:28:46;20.00;65.30
12901;DHT22;6518;50.930;5.344;2022-08-21T07:31:15;20.00;65.00
12901;DHT22;6518;50.930;5.344;2022-08-21T07:33:43;20.00;64.90
12901;DHT22;6518;50.930;5.344;2022-08-21T07:36:12;20.00;64.80
12901;DHT22;6518;50.930;5.344;2022-08-21T07:38:39;20.00;65.00
12901;DHT22;6518;50.930;5.344;2022-08-21T07:41:12;20.10;64.90
12901;DHT22;6518;50.930;5.344;2022-08-21T07:43:40;20.10;64.70
12901;DHT22;6518;50.930;5.344;2022-08-21T07:46:07;20.00;64.80
12901;DHT22;6518;50.930;5.344;2022-08-21T07:48:33;20.10;65.70
12901;DHT22;6518;50.930;5.344;2022-08-21T07:51:05;20.00;64.70
12901;DHT22;6518;50.930;5.344;2022-08-21T07:53:33;20.00;64.90
12901;DHT22;6518;50.930;5.344;2022-08-21T07:56:01;20.10;65.00
12901;DHT22;6518;50.930;5.344;2022-08-21T07:58:29;20.10;65.10
12901;DHT22;6518;50.930;5.344;2022-08-21T08:00:56;20.20;65.40
12901;DHT22;6518;50.930;5.344;2022-08-21T08:03:23;20.30;65.40
12901;DHT22;6518;50.930;5.344;2022-08-21T08:05:50;20.40;65.20
12901;DHT22;6518;50.930;5.344;2022-08-21T08:08:17;20.40;64.90
12901;DHT22;6518;50.930;5.344;2022-08-21T08:10:46;20.40;64.70
12901;DHT22;6518;50.930;5.344;2022-08-21T08:13:13;20.50;64.50
12901;DHT22;6518;50.930;5.344;2022-08-21T08:15:40;20.50;64.10
12901;DHT22;6518;50.930;5.344;2022-08-21T08:18:06;20.40;65.20
12901;DHT22;6518;50.930;5.344;2022-08-21T08:20:33;20.40;64.40
12901;DHT22;6518;50.930;5.344;2022-08-21T08:23:00;20.40;64.40
12901;DHT22;6518;50.930;5.344;2022-08-21T08:25:27;20.50;64.60
12901;DHT22;6518;50.930;5.344;2022-08-21T08:27:56;20.60;64.60
12901;DHT22;6518;50.930;5.344;2022-08-21T08:30:22;20.60;64.50
12901;DHT22;6518;50.930;5.344;2022-08-21T08:32:50;20.70;65.20
12901;DHT22;6518;50.930;5.344;2022-08-21T08:35:17;20.80;64.30
12901;DHT22;6518;50.930;5.344;2022-08-21T08:37:44;20.80;64.00
12901;DHT22;6518;50.930;5.344;2022-08-21T08:40:18;20.90;63.20
12901;DHT22;6518;50.930;5.344;2022-08-21T08:42:46;20.90;63.10
12901;DHT22;6518;50.930;5.344;2022-08-21T08:45:19;20.90;63.10
12901;DHT22;6518;50.930;5.344;2022-08-21T08:47:49;21.00;63.10
12901;DHT22;6518;50.930;5.344;2022-08-21T08:50:20;21.10;63.10
12901;DHT22;6518;50.930;5.344;2022-08-21T08:52:51;21.30;62.90
12901;DHT22;6518;50.930;5.344;2022-08-21T08:55:21;21.40;62.00
12901;DHT22;6518;50.930;5.344;2022-08-21T08:57:51;21.40;61.50
12901;DHT22;6518;50.930;5.344;2022-08-21T09:00:21;21.40;61.40
12901;DHT22;6518;50.930;5.344;2022-08-21T09:02:52;21.40;61.50
12901;DHT22;6518;50.930;5.344;2022-08-21T09:05:22;21.40;61.50
12901;DHT22;6518;50.930;5.344;2022-08-21T09:08:08;21.40;61.10
12901;DHT22;6518;50.930;5.344;2022-08-21T09:10:47;21.40;61.10
12901;DHT22;6518;50.930;5.344;2022-08-21T09:13:19;21.40;60.30
12901;DHT22;6518;50.930;5.344;2022-08-21T09:15:53;21.40;60.70
12901;DHT22;6518;50.930;5.344;2022-08-21T09:18:34;21.50;60.70
12901;DHT22;6518;50.930;5.344;2022-08-21T09:21:14;21.50;60.90
12901;DHT22;6518;50.930;5.344;2022-08-21T09:23:48;21.60;60.80
12901;DHT22;6518;50.930;5.344;2022-08-21T09:26:18;21.70;60.80
12901;DHT22;6518;50.930;5.344;2022-08-21T09:28:52;21.70;60.80
12901;DHT22;6518;50.930;5.344;2022-08-21T09:31:24;21.70;60.40
12901;DHT22;6518;50.930;5.344;2022-08-21T09:33:58;21.70;60.70
12901;DHT22;6518;50.930;5.344;2022-08-21T09:36:33;21.80;60.90
12901;DHT22;6518;50.930;5.344;2022-08-21T09:39:00;21.90;60.60
12901;DHT22;6518;50.930;5.344;2022-08-21T09:41:31;21.90;60.30
12901;DHT22;6518;50.930;5.344;2022-08-21T09:43:59;21.90;60.40
12901;DHT22;6518;50.930;5.344;2022-08-21T09:46:27;22.00;60.30
12901;DHT22;6518;50.930;5.344;2022-08-21T09:48:58;22.10;60.30
12901;DHT22;6518;50.930;5.344;2022-08-21T09:51:27;22.30;60.20
12901;DHT22;6518;50.930;5.344;2022-08-21T09:53:58;22.40;59.70
12901;DHT22;6518;50.930;5.344;2022-08-21T09:56:29;22.50;59.80
12901;DHT22;6518;50.930;5.344;2022-08-21T09:59:19;22.60;59.70
12901;DHT22;6518;50.930;5.344;2022-08-21T10:01:50;22.70;59.40
12901;DHT22;6518;50.930;5.344;2022-08-21T10:04:21;22.90;59.30
12901;DHT22;6518;50.930;5.344;2022-08-21T10:06:49;23.00;59.00
12901;DHT22;6518;50.930;5.344;2022-08-21T10:09:18;23.10;58.70
12901;DHT22;6518;50.930;5.344;2022-08-21T10:11:51;23.10;58.60
12901;DHT22;6518;50.930;5.344;2022-08-21T10:14:32;23.20;58.40
12901;DHT22;6518;50.930;5.344;2022-08-21T10:17:06;23.30;58.10
12901;DHT22;6518;50.930;5.344;2022-08-21T10:19:41;23.40;57.80
12901;DHT22;6518;50.930;5.344;2022-08-21T10:22:19;23.40;57.50
12901;DHT22;6518;50.930;5.344;2022-08-21T10:24:57;23.40;57.60
12901;DHT22;6518;50.930;5.344;2022-08-21T10:27:31;23.40;57.30
12901;DHT22;6518;50.930;5.344;2022-08-21T10:30:05;23.50;56.90
12901;DHT22;6518;50.930;5.344;2022-08-21T10:32:57;23.50;56.80
12901;DHT22;6518;50.930;5.344;2022-08-21T10:35:29;23.60;56.80
12901;DHT22;6518;50.930;5.344;2022-08-21T10:38:17;23.60;56.40
12901;DHT22;6518;50.930;5.344;2022-08-21T10:40:56;23.60;55.90
12901;DHT22;6518;50.930;5.344;2022-08-21T10:43:33;23.50;56.10
12901;DHT22;6518;50.930;5.344;2022-08-21T10:46:12;23.40;56.00
12901;DHT22;6518;50.930;5.344;2022-08-21T10:48:46;23.40;56.10
12901;DHT22;6518;50.930;5.344;2022-08-21T10:51:18;23.40;56.10
12901;DHT22;6518;50.930;5.344;2022-08-21T10:53:55;23.40;56.40
12901;DHT22;6518;50.930;5.344;2022-08-21T10:56:28;23.40;56.40
12901;DHT22;6518;50.930;5.344;2022-08-21T10:59:18;23.40;55.50
12901;DHT22;6518;50.930;5.344;2022-08-21T11:01:49;23.40;55.50
12901;DHT22;6518;50.930;5.344;2022-08-21T11:04:23;23.40;55.60
12901;DHT22;6518;50.930;5.344;2022-08-21T11:07:00;23.50;55.50
12901;DHT22;6518;50.930;5.344;2022-08-21T11:09:28;23.50;55.30
12901;DHT22;6518;50.930;5.344;2022-08-21T11:12:00;23.50;55.00
12901;DHT22;6518;50.930;5.344;2022-08-21T11:14:37;23.50;55.10
12901;DHT22;6518;50.930;5.344;2022-08-21T11:17:09;23.40;55.20
12901;DHT22;6518;50.930;5.344;2022-08-21T11:19:42;23.40;55.20
12901;DHT22;6518;50.930;5.344;2022-08-21T11:22:15;23.50;55.70
12901;DHT22;6518;50.930;5.344;2022-08-21T11:24:49;23.60;55.70
12901;DHT22;6518;50.930;5.344;2022-08-21T11:27:21;23.70;55.80
12901;DHT22;6518;50.930;5.344;2022-08-21T11:29:52;23.80;55.30
12901;DHT22;6518;50.930;5.344;2022-08-21T11:35:39;23.90;55.20
12901;DHT22;6518;50.930;5.344;2022-08-21T11:38:17;24.00;55.50
12901;DHT22;6518;50.930;5.344;2022-08-21T11:40:54;24.10;55.20
12901;DHT22;6518;50.930;5.344;2022-08-21T11:43:32;24.10;54.70
12901;DHT22;6518;50.930;5.344;2022-08-21T11:46:11;24.10;54.60
12901;DHT22;6518;50.930;5.344;2022-08-21T11:48:45;24.10;54.80
12901;DHT22;6518;50.930;5.344;2022-08-21T11:51:19;24.10;54.80
12901;DHT22;6518;50.930;5.344;2022-08-21T11:53:49;24.10;54.90
12901;DHT22;6518;50.930;5.344;2022-08-21T11:56:20;24.10;54.90
12901;DHT22;6518;50.930;5.344;2022-08-21T11:58:51;24.20;55.30
12901;DHT22;6518;50.930;5.344;2022-08-21T12:01:22;24.30;55.20
12901;DHT22;6518;50.930;5.344;2022-08-21T12:03:55;24.30;54.90
12901;DHT22;6518;50.930;5.344;2022-08-21T12:06:33;24.30;54.60
12901;DHT22;6518;50.930;5.344;2022-08-21T12:09:04;24.30;54.30
12901;DHT22;6518;50.930;5.344;2022-08-21T12:11:31;24.30;54.20
12901;DHT22;6518;50.930;5.344;2022-08-21T12:14:00;24.30;54.40
12901;DHT22;6518;50.930;5.344;2022-08-21T12:16:39;24.30;54.40
12901;DHT22;6518;50.930;5.344;2022-08-21T12:19:09;24.30;53.90
12901;DHT22;6518;50.930;5.344;2022-08-21T12:21:50;24.20;53.50
12901;DHT22;6518;50.930;5.344;2022-08-21T12:24:20;24.10;53.80
12901;DHT22;6518;50.930;5.344;2022-08-21T12:26:59;24.10;54.20
12901;DHT22;6518;50.930;5.344;2022-08-21T12:29:28;24.10;54.30
12901;DHT22;6518;50.930;5.344;2022-08-21T12:31:59;24.10;54.20
12901;DHT22;6518;50.930;5.344;2022-08-21T12:34:32;24.10;54.10
12901;DHT22;6518;50.930;5.344;2022-08-21T12:37:04;24.00;53.60
12901;DHT22;6518;50.930;5.344;2022-08-21T12:39:36;24.00;53.70
12901;DHT22;6518;50.930;5.344;2022-08-21T12:42:09;24.00;53.70
12901;DHT22;6518;50.930;5.344;2022-08-21T12:44:42;24.10;53.70
12901;DHT22;6518;50.930;5.344;2022-08-21T12:47:15;24.20;53.70
12901;DHT22;6518;50.930;5.344;2022-08-21T12:49:52;24.20;53.80
12901;DHT22;6518;50.930;5.344;2022-08-21T12:52:22;24.30;53.50
12901;DHT22;6518;50.930;5.344;2022-08-21T12:54:50;24.40;53.40
12901;DHT22;6518;50.930;5.344;2022-08-21T12:57:21;24.50;53.40
12901;DHT22;6518;50.930;5.344;2022-08-21T12:59:52;24.60;53.20
12901;DHT22;6518;50.930;5.344;2022-08-21T13:02:23;24.60;53.10
12901;DHT22;6518;50.930;5.344;2022-08-21T13:04:50;24.70;52.90
12901;DHT22;6518;50.930;5.344;2022-08-21T13:07:26;24.70;52.40
12901;DHT22;6518;50.930;5.344;2022-08-21T13:09:55;24.70;52.40
12901;DHT22;6518;50.930;5.344;2022-08-21T13:12:24;24.70;52.40
12901;DHT22;6518;50.930;5.344;2022-08-21T13:14:52;24.70;52.10
12901;DHT22;6518;50.930;5.344;2022-08-21T13:17:24;24.80;52.20
12901;DHT22;6518;50.930;5.344;2022-08-21T13:20:00;24.80;52.10
12901;DHT22;6518;50.930;5.344;2022-08-21T13:22:28;24.80;51.70
12901;DHT22;6518;50.930;5.344;2022-08-21T13:24:56;24.90;51.60
12901;DHT22;6518;50.930;5.344;2022-08-21T13:27:26;24.90;51.40
12901;DHT22;6518;50.930;5.344;2022-08-21T13:30:10;25.00;51.30
12901;DHT22;6518;50.930;5.344;2022-08-21T13:32:41;25.10;51.10
12901;DHT22;6518;50.930;5.344;2022-08-21T13:35:14;25.10;51.00
12901;DHT22;6518;50.930;5.344;2022-08-21T13:37:45;25.10;50.90
12901;DHT22;6518;50.930;5.344;2022-08-21T13:40:15;25.20;50.90
12901;DHT22;6518;50.930;5.344;2022-08-21T13:42:43;25.30;50.70
12901;DHT22;6518;50.930;5.344;2022-08-21T13:45:14;25.30;50.80
12901;DHT22;6518;50.930;5.344;2022-08-21T13:47:42;25.30;50.60
12901;DHT22;6518;50.930;5.344;2022-08-21T13:50:12;25.30;50.30
12901;DHT22;6518;50.930;5.344;2022-08-21T13:52:53;25.20;50.50
12901;DHT22;6518;50.930;5.344;2022-08-21T13:55:21;25.20;50.80
12901;DHT22;6518;50.930;5.344;2022-08-21T13:57:58;25.10;50.90
12901;DHT22;6518;50.930;5.344;2022-08-21T14:00:27;25.10;51.00
12901;DHT22;6518;50.930;5.344;2022-08-21T14:03:05;25.10;51.00
12901;DHT22;6518;50.930;5.344;2022-08-21T14:05:36;25.00;50.90
12901;DHT22;6518;50.930;5.344;2022-08-21T14:08:07;25.00;50.90
12901;DHT22;6518;50.930;5.344;2022-08-21T14:10:37;25.10;51.00
12901;DHT22;6518;50.930;5.344;2022-08-21T14:13:14;25.10;50.80
12901;DHT22;6518;50.930;5.344;2022-08-21T14:15:54;25.10;50.70
12901;DHT22;6518;50.930;5.344;2022-08-21T14:18:21;25.20;50.70
12901;DHT22;6518;50.930;5.344;2022-08-21T14:20:51;25.20;50.60
12901;DHT22;6518;50.930;5.344;2022-08-21T14:23:25;25.20;50.30
12901;DHT22;6518;50.930;5.344;2022-08-21T14:25:53;25.30;50.10
12901;DHT22;6518;50.930;5.344;2022-08-21T14:28:27;25.30;50.10
12901;DHT22;6518;50.930;5.344;2022-08-21T14:30:56;25.30;50.30
12901;DHT22;6518;50.930;5.344;2022-08-21T14:33:25;25.40;50.10
12901;DHT22;6518;50.930;5.344;2022-08-21T14:35:53;25.50;50.10
12901;DHT22;6518;50.930;5.344;2022-08-21T14:38:21;25.50;50.00
12901;DHT22;6518;50.930;5.344;2022-08-21T14:40:53;25.60;50.00
12901;DHT22;6518;50.930;5.344;2022-08-21T14:43:21;25.60;50.30
12901;DHT22;6518;50.930;5.344;2022-08-21T14:45:48;25.70;49.80
12901;DHT22;6518;50.930;5.344;2022-08-21T14:48:15;25.70;49.90
12901;DHT22;6518;50.930;5.344;2022-08-21T14:50:42;25.70;49.70
12901;DHT22;6518;50.930;5.344;2022-08-21T14:53:09;25.70;49.40
12901;DHT22;6518;50.930;5.344;2022-08-21T14:55:37;25.70;49.40
12901;DHT22;6518;50.930;5.344;2022-08-21T14:58:19;25.60;49.30
12901;DHT22;6518;50.930;5.344;2022-08-21T15:00:49;25.60;49.40
12901;DHT22;6518;50.930;5.344;2022-08-21T15:03:16;25.60;49.30
12901;DHT22;6518;50.930;5.344;2022-08-21T15:05:43;25.60;49.20
12901;DHT22;6518;50.930;5.344;2022-08-21T15:08:10;25.50;48.90
12901;DHT22;6518;50.930;5.344;2022-08-21T15:10:37;25.40;49.20
12901;DHT22;6518;50.930;5.344;2022-08-21T15:13:04;25.40;49.30
12901;DHT22;6518;50.930;5.344;2022-08-21T15:15:38;25.30;49.60
12901;DHT22;6518;50.930;5.344;2022-08-21T15:18:06;25.30;49.60
12901;DHT22;6518;50.930;5.344;2022-08-21T15:20:33;25.30;49.70
12901;DHT22;6518;50.930;5.344;2022-08-21T15:23:00;25.30;49.80
12901;DHT22;6518;50.930;5.344;2022-08-21T15:25:27;25.30;49.80
12901;DHT22;6518;50.930;5.344;2022-08-21T15:27:54;25.30;50.00
12901;DHT22;6518;50.930;5.344;2022-08-21T15:30:21;25.30;49.90
12901;DHT22;6518;50.930;5.344;2022-08-21T15:32:49;25.30;50.00
12901;DHT22;6518;50.930;5.344;2022-08-21T15:35:17;25.30;49.80
12901;DHT22;6518;50.930;5.344;2022-08-21T15:37:44;25.30;49.60
12901;DHT22;6518;50.930;5.344;2022-08-21T15:40:11;25.30;49.80
12901;DHT22;6518;50.930;5.344;2022-08-21T15:42:40;25.30;49.70
12901;DHT22;6518;50.930;5.344;2022-08-21T15:45:09;25.30;49.70
12901;DHT22;6518;50.930;5.344;2022-08-21T15:47:37;25.30;49.80
12901;DHT22;6518;50.930;5.344;2022-08-21T15:50:09;25.30;49.80
12901;DHT22;6518;50.930;5.344;2022-08-21T15:52:36;25.40;49.90
12901;DHT22;6518;50.930;5.344;2022-08-21T15:55:04;25.40;50.00
12901;DHT22;6518;50.930;5.344;2022-08-21T15:57:31;25.50;50.00
12901;DHT22;6518;50.930;5.344;2022-08-21T16:00:00;25.50;49.90
12901;DHT22;6518;50.930;5.344;2022-08-21T16:02:34;25.60;50.00
12901;DHT22;6518;50.930;5.344;2022-08-21T16:05:03;25.60;50.00